CMA CGM Castilla — V7LZ7 — position and weather

sailwx.info

Track history (hours):
 
Tides and Currents Weather Stations Pressure Air Temp Water Temp Dewpoint Dewpoint Depression Visibility Wind Speed Wind Dir Waves Ship Positions

CMA CGM Castilla

Last reported at 2015-Mar-01 16:33 UTC. Time now 2015-Mar-02 00:58 UTC.
Position N 37°27' E 025°54'.

Length 194 m; beam 28.2 m; draft 11.5 m.

Type: Ship. MMSI: 538090285.

Date/timePositionNaut miles runAvg speedWind from/ knotsBaromVisibWave heightAir tempDewpointWater temp
2015-Mar-01 16:33N 37°27' E 025°54'  
2015-Feb-25 07:29N 37°25' E 025°56'1414.3
2015-Feb-25 06:32N 37°35' E 025°45'1414.8
2015-Feb-25 05:33N 37°45' E 025°32'12314.8
2015-Feb-24 21:14N 39°33' E 024°15'1215.6
2015-Feb-24 20:29N 39°38' E 024°01'2015.0
2015-Feb-24 19:10N 39°46' E 023°38'23 1.1
2015-Feb-23 21:33N 39°46' E 024°08'240 9.6
2015-Feb-22 20:31N 41°23' E 028°56'0 0.1
2015-Feb-22 17:09N 41°23' E 028°56'1 0.3
2015-Feb-22 14:04N 41°22' E 028°56'0 0.2
2015-Feb-22 12:24N 41°22' E 028°57'0 0.2
2015-Feb-22 11:24N 41°23' E 028°57'0 0.2
2015-Feb-22 10:31N 41°23' E 028°57'0 0.0
2015-Feb-22 09:33N 41°23' E 028°57'0 0.2
2015-Feb-22 08:31N 41°23' E 028°57'0 0.4
2015-Feb-22 07:31N 41°23' E 028°57'0 0.3
2015-Feb-22 06:03N 41°23' E 028°57'0 0.1
2015-Feb-22 05:12N 41°23' E 028°57'0 0.1
2015-Feb-22 04:30N 41°23' E 028°57'22 3.2
2015-Feb-21 21:34N 41°27' E 029°26'39515.1
2015-Feb-20 19:20N 44°27' E 037°27'1316.1
2015-Feb-20 18:33N 44°33' E 037°43'1110.6
2015-Feb-20 17:34N 44°43' E 037°48'1 0.6
2015-Feb-20 16:33N 44°43' E 037°49'0 0.0
2015-Feb-20 15:33N 44°43' E 037°49'0 0.0
2015-Feb-20 14:31N 44°43' E 037°49'0 0.0
2015-Feb-20 13:31N 44°43' E 037°49'0 0.0
2015-Feb-20 12:31N 44°43' E 037°49'0 0.0
2015-Feb-20 11:31N 44°43' E 037°49'0 0.0
2015-Feb-20 10:31N 44°43' E 037°49'0 0.0
2015-Feb-20 09:31N 44°43' E 037°49'0 0.0
2015-Feb-20 08:31N 44°43' E 037°49'0 0.0
2015-Feb-20 07:31N 44°43' E 037°49'0 0.0
2015-Feb-20 06:31N 44°43' E 037°49'0 0.0
2015-Feb-20 05:31N 44°43' E 037°49'0 0.0
2015-Feb-20 04:31N 44°43' E 037°49'0 0.0
2015-Feb-20 03:31N 44°43' E 037°49'0 0.0
2015-Feb-20 02:33N 44°43' E 037°49'0 0.0
2015-Feb-20 01:33N 44°43' E 037°49'0 0.0
2015-Feb-20 00:33N 44°43' E 037°49'0 0.0
2015-Feb-19 23:33N 44°43' E 037°49'0 0.0
2015-Feb-19 22:33N 44°43' E 037°49'0 0.0
2015-Feb-19 21:34N 44°43' E 037°49'0 0.0
2015-Feb-19 20:33N 44°43' E 037°49'0 0.0
2015-Feb-19 19:33N 44°43' E 037°49'0 0.0
2015-Feb-19 18:33N 44°43' E 037°49'0 0.0
2015-Feb-19 17:33N 44°43' E 037°49'0 0.0
2015-Feb-19 16:33N 44°43' E 037°49'  
Track history (hours):
 
Tides and Currents Weather Stations Pressure Air Temp Water Temp Dewpoint Dewpoint Depression Visibility Wind Speed Wind Dir Waves Ship Positions

CMA CGM Castilla

Last reported at 2015-Mar-01 16:33 UTC. Time now 2015-Mar-02 00:58 UTC.
Position N 37°27' E 025°54'.

Length 194 m; beam 28.2 m; draft 11.5 m.

Type: Ship. MMSI: 538090285.

Date/timePositionNaut miles runAvg speedWind from/ knotsBaromVisibWave heightAir tempDewpointWater temp
2015-Mar-01 16:33N 37°27' E 025°54'  
2015-Feb-25 07:29N 37°25' E 025°56'1414.3
2015-Feb-25 06:32N 37°35' E 025°45'1414.8
2015-Feb-25 05:33N 37°45' E 025°32'12314.8
2015-Feb-24 21:14N 39°33' E 024°15'1215.6
2015-Feb-24 20:29N 39°38' E 024°01'2015.0
2015-Feb-24 19:10N 39°46' E 023°38'23 1.1
2015-Feb-23 21:33N 39°46' E 024°08'240 9.6
2015-Feb-22 20:31N 41°23' E 028°56'0 0.1
2015-Feb-22 17:09N 41°23' E 028°56'1 0.3
2015-Feb-22 14:04N 41°22' E 028°56'0 0.2
2015-Feb-22 12:24N 41°22' E 028°57'0 0.2
2015-Feb-22 11:24N 41°23' E 028°57'0 0.2
2015-Feb-22 10:31N 41°23' E 028°57'0 0.0
2015-Feb-22 09:33N 41°23' E 028°57'0 0.2
2015-Feb-22 08:31N 41°23' E 028°57'0 0.4
2015-Feb-22 07:31N 41°23' E 028°57'0 0.3
2015-Feb-22 06:03N 41°23' E 028°57'0 0.1
2015-Feb-22 05:12N 41°23' E 028°57'0 0.1
2015-Feb-22 04:30N 41°23' E 028°57'22 3.2
2015-Feb-21 21:34N 41°27' E 029°26'39515.1
2015-Feb-20 19:20N 44°27' E 037°27'1316.1
2015-Feb-20 18:33N 44°33' E 037°43'1110.6
2015-Feb-20 17:34N 44°43' E 037°48'1 0.6
2015-Feb-20 16:33N 44°43' E 037°49'0 0.0
2015-Feb-20 15:33N 44°43' E 037°49'0 0.0
2015-Feb-20 14:31N 44°43' E 037°49'0 0.0
2015-Feb-20 13:31N 44°43' E 037°49'0 0.0
2015-Feb-20 12:31N 44°43' E 037°49'0 0.0
2015-Feb-20 11:31N 44°43' E 037°49'0 0.0
2015-Feb-20 10:31N 44°43' E 037°49'0 0.0
2015-Feb-20 09:31N 44°43' E 037°49'0 0.0
2015-Feb-20 08:31N 44°43' E 037°49'0 0.0
2015-Feb-20 07:31N 44°43' E 037°49'0 0.0
2015-Feb-20 06:31N 44°43' E 037°49'0 0.0
2015-Feb-20 05:31N 44°43' E 037°49'0 0.0
2015-Feb-20 04:31N 44°43' E 037°49'0 0.0
2015-Feb-20 03:31N 44°43' E 037°49'0 0.0
2015-Feb-20 02:33N 44°43' E 037°49'0 0.0
2015-Feb-20 01:33N 44°43' E 037°49'0 0.0
2015-Feb-20 00:33N 44°43' E 037°49'0 0.0
2015-Feb-19 23:33N 44°43' E 037°49'0 0.0
2015-Feb-19 22:33N 44°43' E 037°49'0 0.0
2015-Feb-19 21:34N 44°43' E 037°49'0 0.0
2015-Feb-19 20:33N 44°43' E 037°49'0 0.0
2015-Feb-19 19:33N 44°43' E 037°49'0 0.0
2015-Feb-19 18:33N 44°43' E 037°49'0 0.0
2015-Feb-19 17:33N 44°43' E 037°49'0 0.0
2015-Feb-19 16:33N 44°43' E 037°49'  

Dump ship's entire track history